Waterford, RI

7:21 PM EST on December 03, 2016 (GMT -0500)
The North End | | Change Station

Elev 242 ft 42.01 °N, 71.52 °W | Updated 13 seconds ago

Overcast
Overcast
39.1 °F
Feels Like 39 °F
N
3.0
Wind Variable Wind from ENE
Gusts 4.0 mph

Today
High -- | Low -- °F
--% Chance of Precip.
Yesterday
High -- | Low -- °F
Precip. -- in
Pressure 30.08 in
Visibility 10.0 miles
Clouds Overcast 6000 ft
Windchill 39 °F
Dew Point 26 °F
Humidity 59%
Rainfall 0.00 in
Snow Depth Not available.
6:57 AM 4:14 PM
Waxing Crescent, 18% visible
METAR KSFZ 032356Z AUTO 32014G19KT 10SM OVC060 03/M05 A3002 RMK AO2 SLP186 T00331050 10072 20033 53027
Pressure 30.08 in
Visibility 10.0 miles
Clouds Overcast 6000 ft
Windchill 39 °F
Dew Point 26 °F
Humidity 59%
Rainfall 0.00 in
Snow Depth Not available.
6:57 AM 4:14 PM
Waxing Crescent, 18% visible
METAR KSFZ 032356Z AUTO 32014G19KT 10SM OVC060 03/M05 A3002 RMK AO2 SLP186 T00331050 10072 20033 53027

10-Day Weather Forecast

Almanac

Astronomy

Dec. 03, 2016 Rise Set
Actual Time
Civil Twilight
Nautical Twilight
Astronomical Twilight
Moon
Length of Visible Light
Length of Day
Tomorrow will be .
, % of the Moon is Illuminated

Today's Extremes

State Highs State Lows

Community

WunderPhotos

Upload Photos

1,955,538 photos uploaded!

WunderBlog® & News

Nearby

Air Quality

  Air Quality AQ Index Pollutant
Not available.

Snow Depth

Station Depth Elevation

Earthquake Activity

City Distance Mag. Time & Date
Minimum magnitude displayed is 2.5.

Coastal Water Temperatures

Place Temperature

Stations

Nearby Weather Stations

Station Location Temp. Windchill Dew Point Humidity Wind Precip. Elev Updated Type
                   

Watches & Warnings

There are currently no watches in effect.